sensor_id;sensor_type;location;lat;lon;timestamp;P1;durP1;ratioP1;P2;durP2;ratioP2
65855;SDS011;52631;42.208;24.656;2023-03-14T00:00:55;5.97;;;3.35;;
65855;SDS011;52631;42.208;24.656;2023-03-14T00:03:21;7.00;;;3.22;;
65855;SDS011;52631;42.208;24.656;2023-03-14T00:05:46;6.00;;;2.97;;
65855;SDS011;52631;42.208;24.656;2023-03-14T00:08:12;5.97;;;2.80;;
65855;SDS011;52631;42.208;24.656;2023-03-14T00:10:37;5.25;;;3.20;;
65855;SDS011;52631;42.208;24.656;2023-03-14T00:13:03;7.40;;;3.45;;
65855;SDS011;52631;42.208;24.656;2023-03-14T00:15:29;7.25;;;3.67;;
65855;SDS011;52631;42.208;24.656;2023-03-14T00:17:55;6.30;;;3.47;;
65855;SDS011;52631;42.208;24.656;2023-03-14T00:20:20;6.80;;;3.65;;
65855;SDS011;52631;42.208;24.656;2023-03-14T00:22:46;6.13;;;3.10;;
65855;SDS011;52631;42.208;24.656;2023-03-14T00:25:11;5.75;;;3.92;;
65855;SDS011;52631;42.208;24.656;2023-03-14T00:27:37;8.70;;;3.78;;
65855;SDS011;52631;42.208;24.656;2023-03-14T00:30:03;6.75;;;3.72;;
65855;SDS011;52631;42.208;24.656;2023-03-14T00:32:30;7.25;;;4.28;;
65855;SDS011;52631;42.208;24.656;2023-03-14T00:34:55;8.98;;;4.03;;
65855;SDS011;52631;42.208;24.656;2023-03-14T00:37:21;6.25;;;3.85;;
65855;SDS011;52631;42.208;24.656;2023-03-14T00:39:46;7.50;;;3.47;;
65855;SDS011;52631;42.208;24.656;2023-03-14T00:42:13;7.07;;;4.35;;
65855;SDS011;52631;42.208;24.656;2023-03-14T00:44:38;7.30;;;4.10;;
65855;SDS011;52631;42.208;24.656;2023-03-14T00:47:04;6.22;;;3.78;;
65855;SDS011;52631;42.208;24.656;2023-03-14T00:49:29;8.05;;;4.13;;
65855;SDS011;52631;42.208;24.656;2023-03-14T00:54:39;9.07;;;4.45;;
65855;SDS011;52631;42.208;24.656;2023-03-14T00:57:05;11.98;;;4.57;;
65855;SDS011;52631;42.208;24.656;2023-03-14T00:59:30;10.48;;;4.80;;
65855;SDS011;52631;42.208;24.656;2023-03-14T01:01:55;14.77;;;6.00;;
65855;SDS011;52631;42.208;24.656;2023-03-14T01:04:21;15.55;;;5.40;;
65855;SDS011;52631;42.208;24.656;2023-03-14T01:06:48;14.95;;;6.45;;
65855;SDS011;52631;42.208;24.656;2023-03-14T01:09:13;17.92;;;7.13;;
65855;SDS011;52631;42.208;24.656;2023-03-14T01:11:39;11.85;;;5.18;;
65855;SDS011;52631;42.208;24.656;2023-03-14T01:14:04;10.57;;;5.40;;
65855;SDS011;52631;42.208;24.656;2023-03-14T01:16:31;10.25;;;6.28;;
65855;SDS011;52631;42.208;24.656;2023-03-14T01:19:00;10.73;;;5.93;;
65855;SDS011;52631;42.208;24.656;2023-03-14T01:21:27;12.38;;;6.82;;
65855;SDS011;52631;42.208;24.656;2023-03-14T01:23:55;11.55;;;5.35;;
65855;SDS011;52631;42.208;24.656;2023-03-14T01:26:23;12.50;;;5.72;;
65855;SDS011;52631;42.208;24.656;2023-03-14T01:28:49;12.63;;;5.68;;
65855;SDS011;52631;42.208;24.656;2023-03-14T01:31:16;14.82;;;5.28;;
65855;SDS011;52631;42.208;24.656;2023-03-14T01:33:42;17.42;;;8.35;;
65855;SDS011;52631;42.208;24.656;2023-03-14T01:36:08;17.63;;;6.93;;
65855;SDS011;52631;42.208;24.656;2023-03-14T01:38:34;18.65;;;8.27;;
65855;SDS011;52631;42.208;24.656;2023-03-14T01:41:01;16.08;;;6.97;;
65855;SDS011;52631;42.208;24.656;2023-03-14T01:43:27;13.43;;;5.65;;
65855;SDS011;52631;42.208;24.656;2023-03-14T01:48:38;10.73;;;5.10;;
65855;SDS011;52631;42.208;24.656;2023-03-14T01:51:10;8.65;;;4.55;;
65855;SDS011;52631;42.208;24.656;2023-03-14T01:53:38;8.38;;;4.70;;
65855;SDS011;52631;42.208;24.656;2023-03-14T01:56:04;8.85;;;5.22;;
65855;SDS011;52631;42.208;24.656;2023-03-14T01:58:30;9.45;;;5.00;;
65855;SDS011;52631;42.208;24.656;2023-03-14T02:00:57;10.13;;;5.05;;
65855;SDS011;52631;42.208;24.656;2023-03-14T02:03:24;10.65;;;5.15;;
65855;SDS011;52631;42.208;24.656;2023-03-14T02:05:50;8.70;;;4.85;;
65855;SDS011;52631;42.208;24.656;2023-03-14T02:08:17;10.38;;;4.60;;
65855;SDS011;52631;42.208;24.656;2023-03-14T02:10:45;9.60;;;4.93;;
65855;SDS011;52631;42.208;24.656;2023-03-14T02:13:12;8.85;;;4.18;;
65855;SDS011;52631;42.208;24.656;2023-03-14T02:15:39;10.35;;;4.53;;
65855;SDS011;52631;42.208;24.656;2023-03-14T02:18:05;9.00;;;4.40;;
65855;SDS011;52631;42.208;24.656;2023-03-14T02:25:58;10.32;;;5.55;;
65855;SDS011;52631;42.208;24.656;2023-03-14T02:28:27;12.10;;;5.45;;
65855;SDS011;52631;42.208;24.656;2023-03-14T02:30:52;8.68;;;5.13;;
65855;SDS011;52631;42.208;24.656;2023-03-14T02:33:18;11.90;;;6.57;;
65855;SDS011;52631;42.208;24.656;2023-03-14T02:35:46;12.90;;;7.05;;
65855;SDS011;52631;42.208;24.656;2023-03-14T02:40:52;15.63;;;9.57;;
65855;SDS011;52631;42.208;24.656;2023-03-14T02:43:18;21.10;;;10.55;;
65855;SDS011;52631;42.208;24.656;2023-03-14T02:45:44;13.45;;;7.68;;
65855;SDS011;52631;42.208;24.656;2023-03-14T02:48:24;41.17;;;18.67;;
65855;SDS011;52631;42.208;24.656;2023-03-14T02:50:52;12.65;;;6.60;;
65855;SDS011;52631;42.208;24.656;2023-03-14T02:53:24;11.90;;;7.00;;
65855;SDS011;52631;42.208;24.656;2023-03-14T02:55:51;15.13;;;7.65;;
65855;SDS011;52631;42.208;24.656;2023-03-14T02:58:17;15.02;;;7.10;;
65855;SDS011;52631;42.208;24.656;2023-03-14T03:00:43;13.32;;;6.25;;
65855;SDS011;52631;42.208;24.656;2023-03-14T03:03:08;12.30;;;6.47;;
65855;SDS011;52631;42.208;24.656;2023-03-14T03:05:34;12.80;;;6.82;;
65855;SDS011;52631;42.208;24.656;2023-03-14T03:08:00;11.70;;;7.20;;
65855;SDS011;52631;42.208;24.656;2023-03-14T03:10:26;12.80;;;6.85;;
65855;SDS011;52631;42.208;24.656;2023-03-14T03:12:52;14.00;;;7.10;;
65855;SDS011;52631;42.208;24.656;2023-03-14T03:15:18;12.93;;;6.65;;
65855;SDS011;52631;42.208;24.656;2023-03-14T03:17:43;13.35;;;7.00;;
65855;SDS011;52631;42.208;24.656;2023-03-14T03:20:09;16.55;;;8.20;;
65855;SDS011;52631;42.208;24.656;2023-03-14T03:22:35;22.38;;;10.13;;
65855;SDS011;52631;42.208;24.656;2023-03-14T03:25:02;21.33;;;9.90;;
65855;SDS011;52631;42.208;24.656;2023-03-14T03:27:32;20.85;;;10.57;;
65855;SDS011;52631;42.208;24.656;2023-03-14T03:29:59;14.23;;;8.80;;
65855;SDS011;52631;42.208;24.656;2023-03-14T03:32:25;15.27;;;8.52;;
65855;SDS011;52631;42.208;24.656;2023-03-14T03:34:50;18.45;;;9.85;;
65855;SDS011;52631;42.208;24.656;2023-03-14T03:37:16;14.63;;;8.25;;
65855;SDS011;52631;42.208;24.656;2023-03-14T03:39:41;17.25;;;7.75;;
65855;SDS011;52631;42.208;24.656;2023-03-14T03:42:07;17.67;;;8.93;;
65855;SDS011;52631;42.208;24.656;2023-03-14T03:44:32;18.13;;;9.18;;
65855;SDS011;52631;42.208;24.656;2023-03-14T03:46:58;17.63;;;7.78;;
65855;SDS011;52631;42.208;24.656;2023-03-14T03:49:23;17.08;;;8.20;;
65855;SDS011;52631;42.208;24.656;2023-03-14T03:51:49;14.68;;;8.65;;
65855;SDS011;52631;42.208;24.656;2023-03-14T03:54:14;17.33;;;7.93;;
65855;SDS011;52631;42.208;24.656;2023-03-14T03:56:40;14.23;;;7.47;;
65855;SDS011;52631;42.208;24.656;2023-03-14T03:59:05;16.40;;;8.07;;
65855;SDS011;52631;42.208;24.656;2023-03-14T04:01:31;14.75;;;7.22;;
65855;SDS011;52631;42.208;24.656;2023-03-14T04:03:56;12.88;;;6.78;;
65855;SDS011;52631;42.208;24.656;2023-03-14T04:06:22;13.77;;;6.95;;
65855;SDS011;52631;42.208;24.656;2023-03-14T04:08:48;14.00;;;6.80;;
65855;SDS011;52631;42.208;24.656;2023-03-14T04:11:13;11.38;;;6.68;;
65855;SDS011;52631;42.208;24.656;2023-03-14T04:13:39;13.45;;;6.38;;
65855;SDS011;52631;42.208;24.656;2023-03-14T04:16:09;10.77;;;6.50;;
65855;SDS011;52631;42.208;24.656;2023-03-14T04:18:41;16.83;;;8.45;;
65855;SDS011;52631;42.208;24.656;2023-03-14T04:21:07;16.20;;;8.10;;
65855;SDS011;52631;42.208;24.656;2023-03-14T04:23:32;14.15;;;7.15;;
65855;SDS011;52631;42.208;24.656;2023-03-14T04:25:58;13.00;;;7.32;;
65855;SDS011;52631;42.208;24.656;2023-03-14T04:28:23;28.83;;;14.10;;
65855;SDS011;52631;42.208;24.656;2023-03-14T04:30:49;18.98;;;8.95;;
65855;SDS011;52631;42.208;24.656;2023-03-14T04:33:15;22.65;;;9.63;;
65855;SDS011;52631;42.208;24.656;2023-03-14T04:35:42;18.65;;;7.75;;
65855;SDS011;52631;42.208;24.656;2023-03-14T04:38:11;16.23;;;7.25;;
65855;SDS011;52631;42.208;24.656;2023-03-14T04:40:37;15.82;;;7.03;;
65855;SDS011;52631;42.208;24.656;2023-03-14T04:43:04;40.15;;;15.02;;
65855;SDS011;52631;42.208;24.656;2023-03-14T04:45:29;16.77;;;8.23;;
65855;SDS011;52631;42.208;24.656;2023-03-14T04:47:54;15.30;;;6.53;;
65855;SDS011;52631;42.208;24.656;2023-03-14T04:50:20;11.45;;;6.18;;
65855;SDS011;52631;42.208;24.656;2023-03-14T04:52:45;10.93;;;6.20;;
65855;SDS011;52631;42.208;24.656;2023-03-14T04:55:11;14.00;;;7.93;;
65855;SDS011;52631;42.208;24.656;2023-03-14T04:57:36;16.92;;;7.53;;
65855;SDS011;52631;42.208;24.656;2023-03-14T05:00:03;12.10;;;6.43;;
65855;SDS011;52631;42.208;24.656;2023-03-14T05:02:33;9.90;;;6.18;;
65855;SDS011;52631;42.208;24.656;2023-03-14T05:04:59;12.38;;;5.95;;
65855;SDS011;52631;42.208;24.656;2023-03-14T05:07:24;11.48;;;5.75;;
65855;SDS011;52631;42.208;24.656;2023-03-14T05:09:50;12.95;;;6.03;;
65855;SDS011;52631;42.208;24.656;2023-03-14T05:12:16;12.60;;;5.78;;
65855;SDS011;52631;42.208;24.656;2023-03-14T05:14:41;13.93;;;5.50;;
65855;SDS011;52631;42.208;24.656;2023-03-14T05:17:07;14.27;;;7.25;;
65855;SDS011;52631;42.208;24.656;2023-03-14T05:19:32;12.85;;;8.07;;
65855;SDS011;52631;42.208;24.656;2023-03-14T05:21:58;20.92;;;9.23;;
65855;SDS011;52631;42.208;24.656;2023-03-14T05:24:23;21.65;;;9.02;;
65855;SDS011;52631;42.208;24.656;2023-03-14T05:26:49;17.63;;;8.80;;
65855;SDS011;52631;42.208;24.656;2023-03-14T05:29:14;18.02;;;10.18;;
65855;SDS011;52631;42.208;24.656;2023-03-14T05:31:40;18.15;;;9.45;;
65855;SDS011;52631;42.208;24.656;2023-03-14T05:34:05;22.58;;;9.60;;
65855;SDS011;52631;42.208;24.656;2023-03-14T05:36:31;17.88;;;10.13;;
65855;SDS011;52631;42.208;24.656;2023-03-14T05:38:56;25.13;;;10.30;;
65855;SDS011;52631;42.208;24.656;2023-03-14T05:41:21;24.05;;;10.50;;
65855;SDS011;52631;42.208;24.656;2023-03-14T05:43:47;42.28;;;19.13;;
65855;SDS011;52631;42.208;24.656;2023-03-14T05:46:12;53.20;;;15.48;;
65855;SDS011;52631;42.208;24.656;2023-03-14T05:48:38;16.65;;;9.00;;
65855;SDS011;52631;42.208;24.656;2023-03-14T05:51:04;16.77;;;9.93;;
65855;SDS011;52631;42.208;24.656;2023-03-14T05:53:29;19.70;;;9.65;;
65855;SDS011;52631;42.208;24.656;2023-03-14T05:55:55;18.33;;;10.80;;
65855;SDS011;52631;42.208;24.656;2023-03-14T05:58:21;15.95;;;8.63;;
65855;SDS011;52631;42.208;24.656;2023-03-14T06:00:46;15.90;;;9.77;;
65855;SDS011;52631;42.208;24.656;2023-03-14T06:03:12;16.27;;;8.70;;
65855;SDS011;52631;42.208;24.656;2023-03-14T06:05:38;12.65;;;7.00;;
65855;SDS011;52631;42.208;24.656;2023-03-14T06:08:03;16.42;;;8.68;;
65855;SDS011;52631;42.208;24.656;2023-03-14T06:10:29;29.70;;;8.93;;
65855;SDS011;52631;42.208;24.656;2023-03-14T06:12:54;14.00;;;8.30;;
65855;SDS011;52631;42.208;24.656;2023-03-14T06:15:20;14.27;;;8.05;;
65855;SDS011;52631;42.208;24.656;2023-03-14T06:17:45;13.07;;;8.30;;
65855;SDS011;52631;42.208;24.656;2023-03-14T06:20:11;12.50;;;7.50;;
65855;SDS011;52631;42.208;24.656;2023-03-14T06:22:36;14.82;;;8.77;;
65855;SDS011;52631;42.208;24.656;2023-03-14T06:25:03;12.70;;;8.20;;
65855;SDS011;52631;42.208;24.656;2023-03-14T06:27:29;14.15;;;8.80;;
65855;SDS011;52631;42.208;24.656;2023-03-14T06:29:54;14.90;;;7.57;;
65855;SDS011;52631;42.208;24.656;2023-03-14T06:32:20;15.02;;;8.07;;
65855;SDS011;52631;42.208;24.656;2023-03-14T06:34:46;13.27;;;8.00;;
65855;SDS011;52631;42.208;24.656;2023-03-14T06:37:11;13.55;;;7.95;;
65855;SDS011;52631;42.208;24.656;2023-03-14T06:39:37;14.77;;;7.40;;
65855;SDS011;52631;42.208;24.656;2023-03-14T06:42:04;13.90;;;8.32;;
65855;SDS011;52631;42.208;24.656;2023-03-14T06:44:29;16.08;;;7.05;;
65855;SDS011;52631;42.208;24.656;2023-03-14T06:46:55;16.70;;;8.57;;
65855;SDS011;52631;42.208;24.656;2023-03-14T06:49:21;17.08;;;7.57;;
65855;SDS011;52631;42.208;24.656;2023-03-14T06:51:46;13.57;;;7.43;;
65855;SDS011;52631;42.208;24.656;2023-03-14T06:54:12;10.52;;;6.15;;
65855;SDS011;52631;42.208;24.656;2023-03-14T06:56:37;9.88;;;6.35;;
65855;SDS011;52631;42.208;24.656;2023-03-14T06:59:03;10.52;;;5.80;;
65855;SDS011;52631;42.208;24.656;2023-03-14T07:01:29;11.23;;;5.30;;
65855;SDS011;52631;42.208;24.656;2023-03-14T07:03:54;8.50;;;5.40;;
65855;SDS011;52631;42.208;24.656;2023-03-14T07:06:20;13.80;;;5.75;;
65855;SDS011;52631;42.208;24.656;2023-03-14T07:08:46;8.70;;;5.78;;
65855;SDS011;52631;42.208;24.656;2023-03-14T07:11:11;10.88;;;6.13;;
65855;SDS011;52631;42.208;24.656;2023-03-14T07:13:37;13.55;;;7.68;;
65855;SDS011;52631;42.208;24.656;2023-03-14T07:16:04;13.38;;;7.15;;
65855;SDS011;52631;42.208;24.656;2023-03-14T07:18:30;12.60;;;6.50;;
65855;SDS011;52631;42.208;24.656;2023-03-14T07:20:55;13.70;;;7.28;;
65855;SDS011;52631;42.208;24.656;2023-03-14T07:23:21;15.65;;;5.80;;
65855;SDS011;52631;42.208;24.656;2023-03-14T07:25:46;10.93;;;6.95;;
65855;SDS011;52631;42.208;24.656;2023-03-14T07:28:12;9.95;;;5.85;;
65855;SDS011;52631;42.208;24.656;2023-03-14T07:30:37;11.07;;;7.25;;
65855;SDS011;52631;42.208;24.656;2023-03-14T07:33:03;13.75;;;7.30;;
65855;SDS011;52631;42.208;24.656;2023-03-14T07:35:28;13.40;;;6.43;;
65855;SDS011;52631;42.208;24.656;2023-03-14T07:37:54;15.48;;;6.63;;
65855;SDS011;52631;42.208;24.656;2023-03-14T07:40:19;11.00;;;6.43;;
65855;SDS011;52631;42.208;24.656;2023-03-14T07:42:45;13.15;;;6.90;;
65855;SDS011;52631;42.208;24.656;2023-03-14T07:45:10;11.48;;;7.30;;
65855;SDS011;52631;42.208;24.656;2023-03-14T07:47:36;10.02;;;5.70;;
65855;SDS011;52631;42.208;24.656;2023-03-14T07:50:02;14.48;;;5.65;;
65855;SDS011;52631;42.208;24.656;2023-03-14T07:52:29;11.68;;;6.78;;
65855;SDS011;52631;42.208;24.656;2023-03-14T07:54:54;10.52;;;6.30;;
65855;SDS011;52631;42.208;24.656;2023-03-14T07:57:19;9.80;;;5.93;;
65855;SDS011;52631;42.208;24.656;2023-03-14T07:59:45;11.73;;;6.57;;
65855;SDS011;52631;42.208;24.656;2023-03-14T08:02:11;10.13;;;5.85;;
65855;SDS011;52631;42.208;24.656;2023-03-14T08:04:38;13.63;;;6.22;;
65855;SDS011;52631;42.208;24.656;2023-03-14T08:07:04;9.70;;;6.35;;
65855;SDS011;52631;42.208;24.656;2023-03-14T08:09:29;10.75;;;5.95;;
65855;SDS011;52631;42.208;24.656;2023-03-14T08:11:55;10.75;;;6.13;;
65855;SDS011;52631;42.208;24.656;2023-03-14T08:14:20;8.35;;;5.97;;
65855;SDS011;52631;42.208;24.656;2023-03-14T08:16:48;10.15;;;5.45;;
65855;SDS011;52631;42.208;24.656;2023-03-14T08:19:14;9.20;;;5.55;;
65855;SDS011;52631;42.208;24.656;2023-03-14T08:21:39;12.50;;;5.88;;
65855;SDS011;52631;42.208;24.656;2023-03-14T08:24:05;11.82;;;6.20;;
65855;SDS011;52631;42.208;24.656;2023-03-14T08:26:31;12.10;;;6.82;;
65855;SDS011;52631;42.208;24.656;2023-03-14T08:28:56;10.35;;;5.35;;
65855;SDS011;52631;42.208;24.656;2023-03-14T08:31:22;8.35;;;5.72;;
65855;SDS011;52631;42.208;24.656;2023-03-14T08:33:48;10.80;;;6.13;;
65855;SDS011;52631;42.208;24.656;2023-03-14T08:36:14;8.27;;;5.35;;
65855;SDS011;52631;42.208;24.656;2023-03-14T08:38:39;10.20;;;5.30;;
65855;SDS011;52631;42.208;24.656;2023-03-14T08:41:07;9.98;;;5.15;;
65855;SDS011;52631;42.208;24.656;2023-03-14T08:43:33;9.70;;;5.45;;
65855;SDS011;52631;42.208;24.656;2023-03-14T08:45:59;9.23;;;5.32;;
65855;SDS011;52631;42.208;24.656;2023-03-14T08:48:26;10.48;;;4.95;;
65855;SDS011;52631;42.208;24.656;2023-03-14T08:50:52;8.40;;;5.10;;
65855;SDS011;52631;42.208;24.656;2023-03-14T08:53:17;10.63;;;5.28;;
65855;SDS011;52631;42.208;24.656;2023-03-14T08:55:43;9.45;;;4.82;;
65855;SDS011;52631;42.208;24.656;2023-03-14T08:58:09;7.90;;;4.60;;
65855;SDS011;52631;42.208;24.656;2023-03-14T09:00:34;9.38;;;5.07;;
65855;SDS011;52631;42.208;24.656;2023-03-14T09:03:00;8.30;;;4.88;;
65855;SDS011;52631;42.208;24.656;2023-03-14T09:05:25;7.93;;;4.15;;
65855;SDS011;52631;42.208;24.656;2023-03-14T09:07:51;7.18;;;4.68;;
65855;SDS011;52631;42.208;24.656;2023-03-14T09:10:16;10.40;;;4.10;;
65855;SDS011;52631;42.208;24.656;2023-03-14T09:12:42;7.45;;;4.20;;
65855;SDS011;52631;42.208;24.656;2023-03-14T09:15:07;8.43;;;3.88;;
65855;SDS011;52631;42.208;24.656;2023-03-14T09:17:33;8.68;;;4.60;;
65855;SDS011;52631;42.208;24.656;2023-03-14T09:19:59;7.70;;;3.95;;
65855;SDS011;52631;42.208;24.656;2023-03-14T09:22:24;7.30;;;4.30;;
65855;SDS011;52631;42.208;24.656;2023-03-14T09:24:51;8.98;;;4.45;;
65855;SDS011;52631;42.208;24.656;2023-03-14T09:27:16;8.32;;;4.55;;
65855;SDS011;52631;42.208;24.656;2023-03-14T09:29:42;8.45;;;4.90;;
65855;SDS011;52631;42.208;24.656;2023-03-14T09:32:07;7.13;;;4.38;;
65855;SDS011;52631;42.208;24.656;2023-03-14T09:34:33;13.18;;;5.05;;
65855;SDS011;52631;42.208;24.656;2023-03-14T09:36:59;10.27;;;4.88;;
65855;SDS011;52631;42.208;24.656;2023-03-14T09:39:25;10.57;;;4.80;;
65855;SDS011;52631;42.208;24.656;2023-03-14T09:41:51;7.05;;;4.05;;
65855;SDS011;52631;42.208;24.656;2023-03-14T09:44:32;7.65;;;4.22;;
65855;SDS011;52631;42.208;24.656;2023-03-14T09:47:04;8.38;;;5.18;;
65855;SDS011;52631;42.208;24.656;2023-03-14T09:49:33;13.50;;;8.07;;
65855;SDS011;52631;42.208;24.656;2023-03-14T09:52:00;10.45;;;6.60;;
65855;SDS011;52631;42.208;24.656;2023-03-14T09:57:11;13.32;;;6.35;;
65855;SDS011;52631;42.208;24.656;2023-03-14T09:59:39;10.15;;;4.57;;
65855;SDS011;52631;42.208;24.656;2023-03-14T10:02:28;7.28;;;4.22;;
65855;SDS011;52631;42.208;24.656;2023-03-14T10:04:53;10.27;;;4.50;;
65855;SDS011;52631;42.208;24.656;2023-03-14T10:07:29;7.95;;;4.45;;
65855;SDS011;52631;42.208;24.656;2023-03-14T10:09:56;7.35;;;4.32;;
65855;SDS011;52631;42.208;24.656;2023-03-14T10:12:32;8.63;;;4.70;;
65855;SDS011;52631;42.208;24.656;2023-03-14T10:15:02;6.95;;;4.22;;
65855;SDS011;52631;42.208;24.656;2023-03-14T10:17:29;5.75;;;3.72;;
65855;SDS011;52631;42.208;24.656;2023-03-14T10:20:43;5.85;;;3.92;;
65855;SDS011;52631;42.208;24.656;2023-03-14T10:25:39;9.05;;;5.00;;
65855;SDS011;52631;42.208;24.656;2023-03-14T10:28:11;7.43;;;4.43;;
65855;SDS011;52631;42.208;24.656;2023-03-14T10:30:50;9.32;;;3.92;;
65855;SDS011;52631;42.208;24.656;2023-03-14T10:33:22;5.32;;;3.45;;
65855;SDS011;52631;42.208;24.656;2023-03-14T10:35:55;7.85;;;3.83;;
65855;SDS011;52631;42.208;24.656;2023-03-14T10:38:39;7.15;;;4.10;;
65855;SDS011;52631;42.208;24.656;2023-03-14T10:41:14;7.25;;;4.53;;
65855;SDS011;52631;42.208;24.656;2023-03-14T10:43:41;8.00;;;4.35;;
65855;SDS011;52631;42.208;24.656;2023-03-14T10:46:16;6.88;;;4.15;;
65855;SDS011;52631;42.208;24.656;2023-03-14T10:48:44;7.35;;;4.03;;
65855;SDS011;52631;42.208;24.656;2023-03-14T10:53:56;6.22;;;4.47;;
65855;SDS011;52631;42.208;24.656;2023-03-14T10:56:23;8.07;;;4.07;;
65855;SDS011;52631;42.208;24.656;2023-03-14T10:58:51;6.70;;;4.25;;
65855;SDS011;52631;42.208;24.656;2023-03-14T11:03:51;6.05;;;4.00;;
65855;SDS011;52631;42.208;24.656;2023-03-14T11:06:23;8.50;;;5.68;;
65855;SDS011;52631;42.208;24.656;2023-03-14T11:11:31;7.40;;;4.50;;
65855;SDS011;52631;42.208;24.656;2023-03-14T11:16:50;7.55;;;4.53;;
65855;SDS011;52631;42.208;24.656;2023-03-14T11:28:48;6.78;;;4.70;;
65855;SDS011;52631;42.208;24.656;2023-03-14T11:31:26;9.52;;;5.90;;
65855;SDS011;52631;42.208;24.656;2023-03-14T11:33:56;10.85;;;5.75;;
65855;SDS011;52631;42.208;24.656;2023-03-14T11:36:29;7.72;;;5.07;;
65855;SDS011;52631;42.208;24.656;2023-03-14T11:38:59;8.18;;;5.15;;
65855;SDS011;52631;42.208;24.656;2023-03-14T11:41:38;11.38;;;5.30;;
65855;SDS011;52631;42.208;24.656;2023-03-14T11:44:19;11.43;;;5.07;;
65855;SDS011;52631;42.208;24.656;2023-03-14T11:47:05;8.95;;;5.90;;
65855;SDS011;52631;42.208;24.656;2023-03-14T11:50:17;10.68;;;5.00;;
65855;SDS011;52631;42.208;24.656;2023-03-14T11:52:46;7.43;;;4.28;;
65855;SDS011;52631;42.208;24.656;2023-03-14T11:55:31;13.15;;;4.38;;
65855;SDS011;52631;42.208;24.656;2023-03-14T11:58:50;7.32;;;3.90;;
65855;SDS011;52631;42.208;24.656;2023-03-14T12:00:56;6.65;;;3.00;;
65855;SDS011;52631;42.208;24.656;2023-03-14T12:06:37;5.45;;;3.13;;
65855;SDS011;52631;42.208;24.656;2023-03-14T12:09:09;5.10;;;3.22;;
65855;SDS011;52631;42.208;24.656;2023-03-14T12:16:48;7.13;;;3.60;;
65855;SDS011;52631;42.208;24.656;2023-03-14T12:21:49;4.93;;;2.58;;
65855;SDS011;52631;42.208;24.656;2023-03-14T12:24:17;5.47;;;3.10;;
65855;SDS011;52631;42.208;24.656;2023-03-14T12:26:48;5.47;;;3.05;;
65855;SDS011;52631;42.208;24.656;2023-03-14T12:29:18;5.75;;;3.78;;
65855;SDS011;52631;42.208;24.656;2023-03-14T12:31:46;7.18;;;2.97;;
65855;SDS011;52631;42.208;24.656;2023-03-14T12:39:16;8.55;;;3.60;;
65855;SDS011;52631;42.208;24.656;2023-03-14T12:41:51;5.38;;;3.15;;
65855;SDS011;52631;42.208;24.656;2023-03-14T12:46:58;7.95;;;3.72;;
65855;SDS011;52631;42.208;24.656;2023-03-14T12:49:30;5.22;;;3.30;;
65855;SDS011;52631;42.208;24.656;2023-03-14T12:52:00;5.13;;;3.17;;
65855;SDS011;52631;42.208;24.656;2023-03-14T12:54:33;9.52;;;4.40;;
65855;SDS011;52631;42.208;24.656;2023-03-14T13:02:40;9.95;;;4.80;;
65855;SDS011;52631;42.208;24.656;2023-03-14T13:05:12;8.15;;;3.55;;
65855;SDS011;52631;42.208;24.656;2023-03-14T13:12:55;6.13;;;3.40;;
65855;SDS011;52631;42.208;24.656;2023-03-14T13:15:27;10.07;;;4.07;;
65855;SDS011;52631;42.208;24.656;2023-03-14T13:18:09;6.45;;;3.75;;
65855;SDS011;52631;42.208;24.656;2023-03-14T13:20:37;7.07;;;3.60;;
65855;SDS011;52631;42.208;24.656;2023-03-14T13:23:17;5.13;;;3.40;;
65855;SDS011;52631;42.208;24.656;2023-03-14T13:25:44;5.90;;;3.28;;
65855;SDS011;52631;42.208;24.656;2023-03-14T13:28:11;5.85;;;3.33;;
65855;SDS011;52631;42.208;24.656;2023-03-14T13:30:40;6.50;;;4.85;;
65855;SDS011;52631;42.208;24.656;2023-03-14T13:33:11;8.18;;;5.25;;
65855;SDS011;52631;42.208;24.656;2023-03-14T13:35:44;9.00;;;5.18;;
65855;SDS011;52631;42.208;24.656;2023-03-14T13:38:16;7.25;;;4.22;;
65855;SDS011;52631;42.208;24.656;2023-03-14T13:40:53;6.45;;;3.60;;
65855;SDS011;52631;42.208;24.656;2023-03-14T13:43:25;8.00;;;3.95;;
65855;SDS011;52631;42.208;24.656;2023-03-14T13:45:54;7.05;;;3.80;;
65855;SDS011;52631;42.208;24.656;2023-03-14T13:48:21;6.88;;;3.63;;
65855;SDS011;52631;42.208;24.656;2023-03-14T13:50:55;5.55;;;3.67;;
65855;SDS011;52631;42.208;24.656;2023-03-14T13:53:23;6.18;;;3.53;;
65855;SDS011;52631;42.208;24.656;2023-03-14T13:55:49;6.70;;;3.65;;
65855;SDS011;52631;42.208;24.656;2023-03-14T13:58:23;5.72;;;3.53;;
65855;SDS011;52631;42.208;24.656;2023-03-14T14:00:57;8.48;;;4.25;;
65855;SDS011;52631;42.208;24.656;2023-03-14T14:03:25;7.63;;;3.85;;
65855;SDS011;52631;42.208;24.656;2023-03-14T14:05:50;7.22;;;3.50;;
65855;SDS011;52631;42.208;24.656;2023-03-14T14:08:16;6.07;;;3.72;;
65855;SDS011;52631;42.208;24.656;2023-03-14T14:10:41;7.00;;;3.55;;
65855;SDS011;52631;42.208;24.656;2023-03-14T14:13:08;6.97;;;4.00;;
65855;SDS011;52631;42.208;24.656;2023-03-14T14:15:37;6.78;;;3.95;;
65855;SDS011;52631;42.208;24.656;2023-03-14T14:18:07;6.07;;;3.90;;
65855;SDS011;52631;42.208;24.656;2023-03-14T14:20:37;7.45;;;3.63;;
65855;SDS011;52631;42.208;24.656;2023-03-14T14:23:05;8.43;;;3.70;;
65855;SDS011;52631;42.208;24.656;2023-03-14T14:25:35;5.90;;;3.50;;
65855;SDS011;52631;42.208;24.656;2023-03-14T14:28:14;7.03;;;3.92;;
65855;SDS011;52631;42.208;24.656;2023-03-14T14:30:59;14.07;;;4.13;;
65855;SDS011;52631;42.208;24.656;2023-03-14T14:33:24;8.10;;;4.05;;
65855;SDS011;52631;42.208;24.656;2023-03-14T14:35:51;7.28;;;3.95;;
65855;SDS011;52631;42.208;24.656;2023-03-14T14:38:18;6.00;;;3.40;;
65855;SDS011;52631;42.208;24.656;2023-03-14T14:40:46;6.15;;;3.10;;
65855;SDS011;52631;42.208;24.656;2023-03-14T14:43:15;7.97;;;3.60;;
65855;SDS011;52631;42.208;24.656;2023-03-14T14:45:43;6.03;;;3.22;;
65855;SDS011;52631;42.208;24.656;2023-03-14T14:48:10;6.20;;;3.40;;
65855;SDS011;52631;42.208;24.656;2023-03-14T14:53:34;9.45;;;3.33;;
65855;SDS011;52631;42.208;24.656;2023-03-14T14:56:18;5.93;;;3.00;;
65855;SDS011;52631;42.208;24.656;2023-03-14T14:58:47;6.40;;;3.45;;
65855;SDS011;52631;42.208;24.656;2023-03-14T15:01:18;6.60;;;2.95;;
65855;SDS011;52631;42.208;24.656;2023-03-14T15:03:46;6.05;;;3.10;;
65855;SDS011;52631;42.208;24.656;2023-03-14T15:06:13;5.35;;;2.90;;
65855;SDS011;52631;42.208;24.656;2023-03-14T15:08:40;6.85;;;3.10;;
65855;SDS011;52631;42.208;24.656;2023-03-14T15:11:18;11.25;;;7.47;;
65855;SDS011;52631;42.208;24.656;2023-03-14T15:13:44;9.27;;;5.50;;
65855;SDS011;52631;42.208;24.656;2023-03-14T15:16:14;7.82;;;4.32;;
65855;SDS011;52631;42.208;24.656;2023-03-14T15:21:08;9.23;;;5.30;;
65855;SDS011;52631;42.208;24.656;2023-03-14T15:23:34;9.32;;;5.22;;
65855;SDS011;52631;42.208;24.656;2023-03-14T15:26:00;10.35;;;6.20;;
65855;SDS011;52631;42.208;24.656;2023-03-14T15:28:26;22.02;;;8.13;;
65855;SDS011;52631;42.208;24.656;2023-03-14T15:30:54;9.40;;;4.25;;
65855;SDS011;52631;42.208;24.656;2023-03-14T15:33:21;8.85;;;4.38;;
65855;SDS011;52631;42.208;24.656;2023-03-14T15:35:47;11.20;;;3.47;;
65855;SDS011;52631;42.208;24.656;2023-03-14T15:38:14;11.18;;;4.47;;
65855;SDS011;52631;42.208;24.656;2023-03-14T15:40:41;7.03;;;3.33;;
65855;SDS011;52631;42.208;24.656;2023-03-14T15:43:07;7.95;;;3.30;;